This is the latest recevied weather packets stored in our database for station/object K4DNM. If no packets are shown the sender has not sent any weather packets the latest 10 day(s).
| Time | Temp. | Humidity | Pressure | Rain* | Wind** | Luminosity | Snow |
|---|---|---|---|---|---|---|---|
| 1778155220 | 19.44° C | 99% | 1009.3 hPa | 0 mm | - | 12 W/m² | - |
| 1778154918 | 19.44° C | 99% | 1009.2 hPa | 0 mm | - | 9 W/m² | - |
| 1778154616 | 19.44° C | 100% | 1009.4 hPa | 0.51 mm | - | 18 W/m² | - |
| 1778154376 | 19.44° C | 99% | 1009.3 hPa | 0.51 mm | - | 23 W/m² | - |
| 1778154017 | 18.89° C | 100% | 1009.4 hPa | 0.76 mm | - | 19 W/m² | - |
| 1778153716 | 18.89° C | 100% | 1009.4 hPa | 0.76 mm | - | 14 W/m² | - |
| 1778153415 | 18.89° C | 100% | 1009.5 hPa | 0.76 mm | - | 12 W/m² | - |
| 1778153121 | 18.89° C | 100% | 1009.5 hPa | 1.02 mm | - | 3 W/m² | - |
| 1778152816 | 18.89° C | 100% | 1009.5 hPa | 1.02 mm | - | 4 W/m² | - |
| 1778152516 | 18.89° C | 100% | 1009.5 hPa | 1.02 mm | - | 6 W/m² | - |
| 1778152219 | 18.89° C | 100% | 1009.4 hPa | 1.27 mm | - | 5 W/m² | - |
| 1778151919 | 18.89° C | 100% | 1009.4 hPa | 1.27 mm | - | 4 W/m² | - |
| 1778151657 | 18.89° C | 100% | 1009 hPa | 0.76 mm | - | 0 W/m² | - |
| 1778151648 | 18.89° C | 100% | 1009.3 hPa | 1.27 mm | - | 3 W/m² | - |
| 1778151599 | 18.89° C | 100% | 1009.1 hPa | 1.02 mm | - | 5 W/m² | - |
| 1778151544 | 18.89° C | 100% | 1009.1 hPa | 1.02 mm | - | 2 W/m² | - |
| 1778151434 | 18.89° C | 100% | 1009.2 hPa | 0.76 mm | - | 0 W/m² | - |
| 1778150404 | 18.89° C | 100% | 1009 hPa | 0.76 mm | - | 0 W/m² | - |
| 1778150103 | 18.89° C | 100% | 1009.1 hPa | 1.02 mm | - | 0 W/m² | - |
| 1778149805 | 18.89° C | 100% | 1009.3 hPa | 0.76 mm | - | 0 W/m² | - |
| 1778149506 | 18.89° C | 100% | 1009.4 hPa | 0.76 mm | - | 0 W/m² | - |
| 1778149206 | 18.89° C | 100% | 1009.2 hPa | 0.76 mm | - | 0 W/m² | - |
| 1778148906 | 18.89° C | 100% | 1009.1 hPa | 0.51 mm | - | 0 W/m² | - |
| 1778148606 | 18.89° C | 100% | 1009.1 hPa | 0.51 mm | - | 0 W/m² | - |
| 1778148291 | 18.89° C | 100% | 1008.9 hPa | 0.76 mm | - | 0 W/m² | - |
* Rain latest hour (hover to see other rain measurements)
** Current wind speed in m/s (hover to see current wind gust speed)